Time;durP1;ratioP1;P1;durP2;ratioP2;P2;SDS_P1;SDS_P2;PMS_P1;PMS_P2;Temp;Humidity;BMP_temperature;BMP_pressure;BME280_temperature;BME280_humidity;BME280_pressure;Samples;Min_cycle;Max_cycle;Signal;HPM_P1;HPM_P2
2023/05/19 00:02:10;;;;;;;4.20;1.48;;;12.00;99.90;;;;;;4979301;28;20030;-75
2023/05/19 00:04:36;;;;;;;6.35;1.38;;;12.00;99.90;;;;;;4981978;28;20034;-75
2023/05/19 00:07:02;;;;;;;7.20;1.50;;;12.00;99.90;;;;;;4980142;28;20038;-75
2023/05/19 00:09:28;;;;;;;10.88;1.33;;;11.90;99.90;;;;;;4980966;28;20092;-74
2023/05/19 00:11:53;;;;;;;6.90;1.40;;;11.90;99.90;;;;;;4979640;28;20077;-74
2023/05/19 00:14:19;;;;;;;5.72;1.98;;;12.00;99.90;;;;;;4977875;28;20026;-75
2023/05/19 00:16:46;;;;;;;5.05;1.77;;;12.00;99.90;;;;;;4997030;23;20034;-72
2023/05/19 00:19:12;;;;;;;4.53;1.30;;;12.00;99.90;;;;;;4997220;28;20046;-72
2023/05/19 00:21:38;;;;;;;5.75;2.17;;;11.90;99.90;;;;;;4996889;28;20029;-72
2023/05/19 00:24:05;;;;;;;7.88;1.92;;;11.80;99.90;;;;;;4996894;28;20014;-72
2023/05/19 00:26:30;;;;;;;3.30;1.13;;;11.70;99.90;;;;;;4997797;28;20026;-72
2023/05/19 00:28:56;;;;;;;2.67;1.42;;;11.50;99.90;;;;;;4997709;28;20034;-72
2023/05/19 00:31:21;;;;;;;4.93;1.40;;;11.70;99.90;;;;;;4997050;28;20114;-72
2023/05/19 00:33:47;;;;;;;5.95;1.58;;;11.80;99.90;;;;;;4997551;28;20027;-72
2023/05/19 00:36:13;;;;;;;5.57;1.60;;;11.70;99.90;;;;;;4997540;28;20022;-72
2023/05/19 00:38:38;;;;;;;4.22;1.30;;;11.50;99.90;;;;;;4997614;28;20022;-72
2023/05/19 00:41:05;;;;;;;4.85;1.63;;;11.70;99.90;;;;;;4997016;28;20136;-72
2023/05/19 00:43:33;;;;;;;7.88;1.42;;;11.60;99.90;;;;;;4996598;28;20026;-72
2023/05/19 00:45:59;;;;;;;6.07;1.48;;;11.60;99.90;;;;;;4996948;28;20058;-72
2023/05/19 00:48:25;;;;;;;2.63;1.38;;;11.70;99.90;;;;;;4996820;28;20096;-72
2023/05/19 00:50:53;;;;;;;4.97;1.90;;;11.80;99.90;;;;;;4996624;28;20027;-72
2023/05/19 00:53:19;;;;;;;5.32;1.92;;;11.80;99.90;;;;;;4996682;28;20022;-72
2023/05/19 00:55:46;;;;;;;5.93;1.50;;;11.70;99.90;;;;;;4997472;28;20033;-72
2023/05/19 00:58:13;;;;;;;4.72;1.48;;;11.70;99.90;;;;;;4997601;28;20037;-72
2023/05/19 01:00:39;;;;;;;5.72;1.75;;;11.70;99.90;;;;;;4996588;28;20061;-74
2023/05/19 01:03:11;;;;;;;4.28;1.60;;;11.70;99.90;;;;;;4996415;28;20023;-72
2023/05/19 01:05:38;;;;;;;;;;;11.70;99.90;;;;;;4996854;28;20065;-72
2023/05/19 01:08:04;;;;;;;5.72;1.52;;;11.60;99.90;;;;;;4998297;28;19905;-72
2023/05/19 01:10:30;;;;;;;7.15;1.60;;;11.70;99.90;;;;;;5000156;28;20099;-72
2023/05/19 01:12:55;;;;;;;3.42;1.40;;;11.60;99.90;;;;;;5001418;28;20112;-72
2023/05/19 01:15:22;;;;;;;3.78;1.45;;;11.70;99.90;;;;;;5001023;28;20027;-72
2023/05/19 01:18:06;;;;;;;3.95;1.48;;;11.60;99.90;;;;;;5000356;28;20031;-72
2023/05/19 01:20:57;;;;;;;4.43;1.58;;;11.60;99.90;;;;;;5000526;28;20033;-72
2023/05/19 01:23:39;;;;;;;3.90;1.30;;;11.60;99.90;;;;;;5001290;28;20023;-72
2023/05/19 01:26:40;;;;;;;4.63;1.40;;;11.50;99.90;;;;;;5001170;28;20031;-72
2023/05/19 01:29:40;;;;;;;2.88;1.55;;;11.50;99.90;;;;;;4999996;28;20270;-74
2023/05/19 01:32:08;;;;;;;6.82;1.95;;;11.40;99.90;;;;;;5000226;28;20076;-72
2023/05/19 01:34:41;;;;;;;5.35;1.70;;;11.30;99.90;;;;;;5000667;28;20058;-72
2023/05/19 01:37:07;;;;;;;8.45;2.03;;;11.30;99.90;;;;;;5000400;28;20019;-72
2023/05/19 01:39:34;;;;;;;11.60;1.30;;;11.30;99.90;;;;;;4999804;28;20029;-72
2023/05/19 01:42:01;;;;;;;9.07;1.67;;;11.30;99.90;;;;;;5000485;28;20037;-72
2023/05/19 01:44:27;;;;;;;3.85;1.50;;;11.20;99.90;;;;;;4999592;28;20060;-72
2023/05/19 01:46:53;;;;;;;7.35;1.80;;;11.20;99.90;;;;;;4999838;28;20036;-72
2023/05/19 01:49:19;;;;;;;4.28;1.38;;;11.20;99.90;;;;;;4999579;28;20077;-72
2023/05/19 01:51:45;;;;;;;7.07;1.90;;;11.20;99.90;;;;;;4999770;28;20038;-72
2023/05/19 01:54:10;;;;;;;2.75;1.40;;;11.10;99.90;;;;;;5000553;28;20081;-72
2023/05/19 01:56:58;;;;;;;4.00;2.13;;;11.20;99.90;;;;;;4999415;28;20084;-72
2023/05/19 01:59:37;;;;;;;4.40;1.67;;;11.20;99.90;;;;;;5000258;28;20023;-72
2023/05/19 02:02:18;;;;;;;7.78;2.58;;;11.20;99.90;;;;;;5000270;28;20018;-72
2023/05/19 02:04:53;;;;;;;3.70;1.23;;;11.10;99.90;;;;;;5000439;28;20031;-72
2023/05/19 02:07:30;;;;;;;4.72;1.55;;;11.10;99.90;;;;;;4999494;28;20056;-72
2023/05/19 02:10:03;;;;;;;7.30;1.83;;;10.90;99.90;;;;;;5000350;28;20061;-72
2023/05/19 02:12:36;;;;;;;5.72;1.30;;;11.00;99.90;;;;;;5000026;28;20026;-72
2023/05/19 02:15:06;;;;;;;6.30;1.65;;;10.90;99.90;;;;;;4999882;28;20065;-72
2023/05/19 02:17:35;;;;;;;1.90;1.13;;;10.80;99.90;;;;;;4999353;28;20038;-72
2023/05/19 02:20:03;;;;;;;6.60;1.90;;;10.80;99.90;;;;;;4998256;28;20018;-72
2023/05/19 02:22:28;;;;;;;5.10;1.52;;;10.90;99.90;;;;;;5000128;28;20034;-72
2023/05/19 02:24:55;;;;;;;7.35;1.50;;;10.80;99.90;;;;;;4999345;28;20068;-72
2023/05/19 02:27:21;;;;;;;4.38;1.95;;;10.70;99.90;;;;;;4999135;28;20030;-72
2023/05/19 02:29:46;;;;;;;5.03;1.50;;;10.70;99.90;;;;;;4999349;28;20053;-74
2023/05/19 02:32:13;;;;;;;3.50;1.40;;;10.70;99.90;;;;;;4999827;28;20038;-72
2023/05/19 02:34:41;;;;;;;5.80;1.50;;;10.80;99.90;;;;;;4998689;28;20036;-72
2023/05/19 02:37:06;;;;;;;4.90;1.95;;;10.70;99.90;;;;;;4999209;28;20022;-72
2023/05/19 02:39:34;;;;;;;4.75;1.70;;;10.70;99.90;;;;;;4998761;28;20019;-72
2023/05/19 02:42:00;;;;;;;6.10;1.55;;;10.80;99.90;;;;;;4999367;28;20080;-72
2023/05/19 02:44:25;;;;;;;2.83;1.10;;;10.80;99.90;;;;;;4998576;28;20084;-72
2023/05/19 02:46:51;;;;;;;6.25;1.67;;;10.80;99.90;;;;;;4998962;28;20121;-72
2023/05/19 02:49:16;;;;;;;6.93;1.50;;;10.80;99.90;;;;;;4998762;28;20142;-72
2023/05/19 02:51:42;;;;;;;6.05;1.45;;;10.70;99.90;;;;;;4999124;28;20030;-72
2023/05/19 02:54:08;;;;;;;4.30;1.60;;;10.80;99.90;;;;;;4999015;28;20033;-72
2023/05/19 02:56:33;;;;;;;5.13;1.40;;;10.80;99.90;;;;;;4999184;28;20068;-72
2023/05/19 02:58:59;;;;;;;10.57;1.55;;;10.90;99.90;;;;;;4998539;28;20023;-72
2023/05/19 03:01:25;;;;;;;3.05;1.70;;;10.90;99.90;;;;;;4999305;28;20117;-72
2023/05/19 03:03:50;;;;;;;4.38;1.13;;;10.70;99.90;;;;;;4998669;28;20057;-72
2023/05/19 03:06:16;;;;;;;8.63;1.70;;;10.70;99.90;;;;;;4998323;28;20126;-72
2023/05/19 03:08:42;;;;;;;4.60;2.13;;;10.80;99.90;;;;;;4998374;28;20066;-72
2023/05/19 03:11:08;;;;;;;3.42;1.48;;;10.70;99.90;;;;;;4998708;28;20037;-72
2023/05/19 03:13:33;;;;;;;6.15;1.58;;;10.70;99.90;;;;;;4998335;28;20026;-72
2023/05/19 03:15:59;;;;;;;5.97;1.52;;;10.70;99.90;;;;;;4997709;28;20022;-72
2023/05/19 03:18:27;;;;;;;4.88;1.48;;;10.60;99.90;;;;;;4997949;28;20037;-72
2023/05/19 03:20:53;;;;;;;5.28;1.85;;;10.60;99.90;;;;;;4998070;28;20062;-72
2023/05/19 03:23:20;;;;;;;9.35;2.80;;;10.60;99.90;;;;;;4998107;28;20022;-72
2023/05/19 03:25:46;;;;;;;6.28;1.60;;;10.50;99.90;;;;;;4998518;28;20027;-72
2023/05/19 03:28:12;;;;;;;4.05;1.30;;;10.40;99.90;;;;;;4998125;28;20090;-72
2023/05/19 03:30:37;;;;;;;7.00;1.92;;;10.50;99.90;;;;;;4997011;28;20104;-72
2023/05/19 03:33:04;;;;;;;5.05;1.50;;;10.40;99.90;;;;;;4998118;28;20027;-72
2023/05/19 03:35:29;;;;;;;7.75;2.00;;;10.30;99.90;;;;;;4997874;28;20038;-73
2023/05/19 03:37:55;;;;;;;8.23;2.08;;;10.30;99.90;;;;;;4997482;28;20022;-72
2023/05/19 03:40:21;;;;;;;4.57;1.80;;;10.30;99.90;;;;;;4997508;28;20098;-72
2023/05/19 03:42:46;;;;;;;5.90;1.70;;;10.30;99.90;;;;;;4998679;28;20050;-72
2023/05/19 03:45:12;;;;;;;7.25;1.92;;;10.30;99.90;;;;;;4997821;28;20022;-72
2023/05/19 03:47:37;;;;;;;5.70;1.42;;;10.30;99.90;;;;;;4997686;28;20022;-72
2023/05/19 03:50:03;;;;;;;8.50;1.85;;;10.30;99.90;;;;;;4997869;28;20121;-72
2023/05/19 03:52:29;;;;;;;6.93;2.13;;;10.30;99.90;;;;;;4998066;28;20109;-72
2023/05/19 03:54:56;;;;;;;4.75;2.08;;;10.30;99.90;;;;;;4997664;28;20022;-72
2023/05/19 03:57:22;;;;;;;6.90;1.95;;;10.20;99.90;;;;;;4997446;28;20022;-72
2023/05/19 03:59:47;;;;;;;2.95;1.40;;;10.30;99.90;;;;;;4997401;28;20037;-72
2023/05/19 04:02:13;;;;;;;2.47;1.63;;;10.40;99.90;;;;;;4998264;28;20022;-72
2023/05/19 04:04:38;;;;;;;4.88;1.63;;;10.40;99.90;;;;;;4997497;28;20026;-73
2023/05/19 04:07:04;;;;;;;5.90;1.67;;;10.40;99.90;;;;;;4997296;28;20026;-72
2023/05/19 04:09:34;;;;;;;8.43;1.80;;;10.40;99.90;;;;;;4997368;28;20034;-72
2023/05/19 04:12:01;;;;;;;6.47;1.85;;;10.20;99.90;;;;;;4997372;28;20085;-72
2023/05/19 04:14:27;;;;;;;3.60;1.55;;;10.30;99.90;;;;;;4997222;28;20033;-72
2023/05/19 04:16:53;;;;;;;5.60;1.77;;;10.30;99.90;;;;;;4997123;28;20081;-72
2023/05/19 04:19:19;;;;;;;5.40;1.70;;;10.30;99.90;;;;;;4997273;28;20027;-72
2023/05/19 04:21:44;;;;;;;5.07;1.80;;;10.00;99.90;;;;;;4997262;28;20049;-72
2023/05/19 04:24:10;;;;;;;5.75;2.00;;;10.20;99.90;;;;;;4997683;28;20030;-72
2023/05/19 04:26:37;;;;;;;6.30;1.60;;;10.10;99.90;;;;;;4997128;28;20069;-72
2023/05/19 04:29:03;;;;;;;10.20;1.83;;;10.30;99.90;;;;;;4997287;28;20030;-72
2023/05/19 04:31:29;;;;;;;8.48;1.70;;;10.30;99.90;;;;;;4997078;28;20025;-72
2023/05/19 04:33:54;;;;;;;6.80;2.30;;;10.40;99.90;;;;;;4996812;28;20022;-72
2023/05/19 04:36:20;;;;;;;6.93;1.90;;;10.40;99.90;;;;;;4996445;28;20031;-72
2023/05/19 04:38:46;;;;;;;6.60;1.48;;;10.50;99.90;;;;;;4997472;28;20022;-73
2023/05/19 04:41:12;;;;;;;4.40;1.95;;;10.40;99.90;;;;;;4997033;28;20030;-72
2023/05/19 04:43:40;;;;;;;3.47;1.92;;;10.30;99.90;;;;;;4999941;28;20085;-72
2023/05/19 04:46:08;;;;;;;4.88;1.58;;;10.10;99.90;;;;;;5000840;28;20053;-72
2023/05/19 04:48:34;;;;;;;5.80;1.60;;;10.30;99.90;;;;;;5001485;28;20080;-72
2023/05/19 04:51:02;;;;;;;5.32;1.70;;;10.30;99.90;;;;;;5000912;28;20125;-72
2023/05/19 04:53:28;;;;;;;3.92;1.67;;;10.10;99.90;;;;;;5000921;28;20030;-72
2023/05/19 04:55:54;;;;;;;9.00;1.60;;;10.10;99.90;;;;;;5000757;28;20117;-72
2023/05/19 04:58:19;;;;;;;4.25;2.20;;;10.20;99.90;;;;;;5000961;28;20018;-72
2023/05/19 05:00:45;;;;;;;4.07;1.40;;;10.40;99.90;;;;;;5001080;28;20029;-73
2023/05/19 05:03:13;;;;;;;4.00;1.63;;;10.40;99.90;;;;;;5000650;28;20050;-72
2023/05/19 05:05:38;;;;;;;8.98;2.33;;;10.40;99.90;;;;;;5001599;28;20026;-72
2023/05/19 05:08:04;;;;;;;7.28;2.35;;;10.30;99.90;;;;;;5000538;28;20084;-72
2023/05/19 05:10:30;;;;;;;7.03;1.75;;;10.10;99.90;;;;;;5000362;28;20033;-72
2023/05/19 05:12:56;;;;;;;6.15;2.08;;;10.30;99.90;;;;;;5000653;28;20121;-72
2023/05/19 05:15:23;;;;;;;5.55;1.90;;;10.30;99.90;;;;;;5000964;28;20054;-72
2023/05/19 05:17:49;;;;;;;5.28;1.90;;;10.60;99.90;;;;;;5000449;28;20057;-72
2023/05/19 05:20:15;;;;;;;5.15;1.80;;;10.50;99.90;;;;;;5000409;28;20022;-72
2023/05/19 05:22:41;;;;;;;8.68;1.90;;;10.60;99.90;;;;;;5000382;28;20105;-72
2023/05/19 05:25:07;;;;;;;3.58;1.55;;;10.60;99.90;;;;;;5000453;28;20027;-72
2023/05/19 05:27:33;;;;;;;5.60;1.83;;;10.70;99.90;;;;;;5000197;28;20033;-72
2023/05/19 05:29:58;;;;;;;5.72;1.60;;;10.80;99.90;;;;;;4999936;28;20026;-72
2023/05/19 05:32:24;;;;;;;9.23;2.00;;;10.80;99.90;;;;;;4999821;28;20034;-72
2023/05/19 05:34:50;;;;;;;9.52;2.10;;;10.90;99.90;;;;;;5000166;28;20026;-72
2023/05/19 05:37:15;;;;;;;9.90;2.00;;;11.10;99.90;;;;;;5000103;28;20018;-72
2023/05/19 05:39:41;;;;;;;5.68;2.20;;;11.10;99.90;;;;;;5000047;28;20230;-72
2023/05/19 05:42:09;;;;;;;6.90;1.98;;;11.00;99.90;;;;;;4999990;28;20018;-72
2023/05/19 05:44:35;;;;;;;8.02;2.05;;;11.20;99.90;;;;;;4999977;28;20116;-72
2023/05/19 05:47:02;;;;;;;6.05;1.88;;;11.10;99.90;;;;;;4999813;28;20050;-73
2023/05/19 05:49:27;;;;;;;7.05;1.75;;;11.20;99.90;;;;;;4999938;28;20031;-72
2023/05/19 05:51:53;;;;;;;2.90;1.80;;;11.30;99.90;;;;;;4999891;28;20033;-72
2023/05/19 05:54:21;;;;;;;9.90;1.55;;;11.40;99.90;;;;;;4998567;28;20030;-72
2023/05/19 05:56:47;;;;;;;7.00;1.52;;;11.40;99.90;;;;;;4999746;28;20055;-72
2023/05/19 05:59:13;;;;;;;11.00;2.08;;;11.60;99.90;;;;;;5000235;28;20026;-73
2023/05/19 06:01:38;;;;;;;7.25;1.65;;;11.70;99.90;;;;;;5000228;28;20019;-72
2023/05/19 06:04:04;;;;;;;7.65;1.60;;;11.70;99.90;;;;;;4999557;28;20029;-72
2023/05/19 06:06:30;;;;;;;6.85;2.45;;;11.80;99.90;;;;;;4999560;28;20019;-72
2023/05/19 06:08:55;;;;;;;5.40;2.15;;;11.90;99.90;;;;;;4999784;28;20068;-72
2023/05/19 06:11:21;;;;;;;4.38;1.88;;;11.90;99.90;;;;;;4999516;28;20027;-72
2023/05/19 06:13:46;;;;;;;4.28;1.67;;;12.00;99.90;;;;;;4999303;28;20105;-72
2023/05/19 06:16:12;;;;;;;8.27;2.08;;;12.00;99.90;;;;;;4999045;28;20061;-72
2023/05/19 06:18:37;;;;;;;2.72;1.83;;;12.10;99.90;;;;;;5040150;23;20034;-74
2023/05/19 06:21:03;;;;;;;4.50;1.77;;;12.00;99.90;;;;;;5018776;28;20018;-74
2023/05/19 06:23:32;;;;;;;3.97;1.85;;;12.10;99.90;;;;;;5018577;28;20022;-74
2023/05/19 06:25:57;;;;;;;14.93;2.28;;;12.10;99.90;;;;;;5018721;28;20037;-74
2023/05/19 06:28:23;;;;;;;6.07;1.92;;;12.30;99.90;;;;;;5018377;28;20029;-75
2023/05/19 06:30:48;;;;;;;6.43;2.30;;;12.20;99.90;;;;;;5018737;28;20022;-75
2023/05/19 06:33:14;;;;;;;6.28;1.80;;;12.30;99.90;;;;;;5018447;28;20026;-75
2023/05/19 06:35:39;;;;;;;9.05;1.80;;;12.40;99.90;;;;;;5018359;28;20029;-74
2023/05/19 06:38:05;;;;;;;6.97;1.92;;;12.40;99.90;;;;;;5018190;28;20025;-75
2023/05/19 06:40:30;;;;;;;5.07;1.52;;;12.50;99.90;;;;;;5018314;28;20018;-75
2023/05/19 06:42:56;;;;;;;5.47;1.70;;;12.60;99.90;;;;;;5018186;28;20072;-75
2023/05/19 06:45:22;;;;;;;7.18;1.85;;;12.70;99.90;;;;;;5019119;28;20041;-75
2023/05/19 06:47:48;;;;;;;7.85;1.80;;;12.80;99.90;;;;;;5017946;28;20049;-75
2023/05/19 06:50:14;;;;;;;6.38;1.90;;;12.80;99.90;;;;;;5018444;28;20048;-75
2023/05/19 06:52:40;;;;;;;6.32;1.83;;;13.00;99.90;;;;;;5018899;28;20030;-75
2023/05/19 06:55:06;;;;;;;5.03;1.58;;;13.00;99.90;;;;;;5018020;28;20072;-75
2023/05/19 06:57:31;;;;;;;5.70;1.98;;;13.10;99.90;;;;;;5017919;28;20065;-75
2023/05/19 06:59:57;;;;;;;8.95;2.20;;;13.20;99.90;;;;;;5018814;28;20037;-74
2023/05/19 07:02:22;;;;;;;4.53;1.48;;;13.10;99.90;;;;;;5017956;28;20033;-75
2023/05/19 07:04:50;;;;;;;8.70;1.98;;;13.20;99.90;;;;;;5017959;28;20033;-75
2023/05/19 07:07:15;;;;;;;6.18;2.22;;;13.20;99.90;;;;;;5017618;28;20029;-75
2023/05/19 07:09:41;;;;;;;7.10;2.35;;;13.30;99.90;;;;;;5017800;28;20076;-75
2023/05/19 07:12:06;;;;;;;10.02;2.30;;;13.40;99.90;;;;;;5017787;28;20030;-75
2023/05/19 07:14:32;;;;;;;4.88;1.83;;;13.50;99.90;;;;;;5018520;28;20022;-75
2023/05/19 07:16:57;;;;;;;9.27;2.00;;;13.50;99.90;;;;;;5017390;28;20084;-75
2023/05/19 07:19:23;;;;;;;5.18;1.60;;;13.60;99.90;;;;;;5018275;28;20080;-75
2023/05/19 07:21:49;;;;;;;7.93;1.65;;;13.80;99.90;;;;;;5017939;28;20026;-75
2023/05/19 07:24:15;;;;;;;9.07;1.95;;;13.90;99.90;;;;;;5018375;28;20026;-75
2023/05/19 07:26:41;;;;;;;4.75;1.60;;;13.90;99.90;;;;;;5017655;28;20025;-75
2023/05/19 07:29:07;;;;;;;8.68;2.00;;;14.10;99.90;;;;;;5018081;28;20030;-75
2023/05/19 07:31:32;;;;;;;10.88;1.75;;;14.20;99.90;;;;;;5017830;28;20037;-75
2023/05/19 07:33:58;;;;;;;6.93;1.58;;;14.20;99.90;;;;;;5017671;28;20101;-75
2023/05/19 07:36:24;;;;;;;6.78;1.85;;;14.40;99.90;;;;;;5017819;28;20026;-75
2023/05/19 07:38:50;;;;;;;6.72;1.55;;;14.60;99.90;;;;;;5017548;28;20053;-75
2023/05/19 07:41:15;;;;;;;2.92;1.42;;;14.60;99.90;;;;;;5017056;28;20038;-75
2023/05/19 07:43:41;;;;;;;6.20;1.63;;;14.60;99.90;;;;;;5017077;28;20026;-75
2023/05/19 07:46:07;;;;;;;10.98;1.60;;;14.70;99.90;;;;;;5017398;28;20045;-75
2023/05/19 07:48:32;;;;;;;11.48;1.98;;;14.70;99.90;;;;;;5017574;28;20025;-75
2023/05/19 07:50:58;;;;;;;4.22;1.70;;;14.80;99.90;;;;;;5017460;28;20045;-75
2023/05/19 07:53:24;;;;;;;6.13;1.75;;;14.80;99.90;;;;;;5016912;28;20073;-76
2023/05/19 07:55:49;;;;;;;4.75;1.80;;;14.90;99.90;;;;;;5016826;28;20033;-75
2023/05/19 07:58:15;;;;;;;3.67;1.42;;;15.00;99.90;;;;;;5017176;28;20021;-75
2023/05/19 08:00:44;;;;;;;5.28;1.60;;;15.30;99.90;;;;;;5017149;28;20109;-75
2023/05/19 08:03:10;;;;;;;6.13;1.73;;;15.40;99.90;;;;;;5017291;28;20026;-75
2023/05/19 08:05:36;;;;;;;4.03;1.23;;;15.60;99.90;;;;;;5016886;28;20030;-75
2023/05/19 08:08:03;;;;;;;4.13;1.13;;;15.70;99.90;;;;;;5017031;28;20036;-75
2023/05/19 08:10:28;;;;;;;7.55;1.88;;;15.80;99.90;;;;;;5016752;28;20107;-75
2023/05/19 08:12:54;;;;;;;4.30;1.20;;;15.80;99.90;;;;;;5016637;28;20153;-75
2023/05/19 08:15:20;;;;;;;8.32;1.42;;;15.80;99.90;;;;;;5016665;28;20029;-75
2023/05/19 08:17:46;;;;;;;6.13;1.73;;;15.90;99.90;;;;;;5016379;28;20026;-75
2023/05/19 08:20:12;;;;;;;2.75;1.27;;;16.10;99.90;;;;;;5016961;28;20109;-75
2023/05/19 08:22:37;;;;;;;3.25;1.10;;;16.10;99.90;;;;;;5017427;28;20080;-75
2023/05/19 08:25:04;;;;;;;3.28;1.40;;;16.20;99.90;;;;;;5017300;28;20030;-75
2023/05/19 08:27:30;;;;;;;4.50;1.50;;;16.50;99.90;;;;;;5017146;28;20036;-75
2023/05/19 08:29:56;;;;;;;11.98;1.65;;;16.40;99.90;;;;;;5016438;28;20060;-75
2023/05/19 08:32:21;;;;;;;1.73;1.10;;;16.50;99.90;;;;;;5016721;28;20159;-75
2023/05/19 08:34:47;;;;;;;5.20;1.35;;;16.60;99.90;;;;;;5016589;28;20057;-75
2023/05/19 08:37:13;;;;;;;3.55;1.17;;;16.60;99.90;;;;;;5016793;28;20033;-75
2023/05/19 08:39:39;;;;;;;3.78;1.27;;;16.50;99.90;;;;;;5016699;28;20029;-76
2023/05/19 08:42:06;;;;;;;5.57;1.52;;;16.40;99.90;;;;;;5016358;28;20052;-75
2023/05/19 08:44:32;;;;;;;8.02;1.55;;;16.60;99.90;;;;;;5016266;28;20113;-76
2023/05/19 08:47:03;;;;;;;6.55;1.58;;;16.70;99.90;;;;;;5016493;28;20028;-75
2023/05/19 08:49:32;;;;;;;5.40;1.30;;;16.70;99.90;;;;;;5017161;28;20026;-75
2023/05/19 08:52:20;;;;;;;2.97;1.52;;;17.10;99.90;;;;;;5016410;28;20030;-75
2023/05/19 08:54:59;;;;;;;5.63;1.88;;;17.00;99.90;;;;;;5016803;28;20022;-75
2023/05/19 08:57:26;;;;;;;7.88;1.58;;;17.40;99.90;;;;;;5016165;28;20133;-75
2023/05/19 08:59:53;;;;;;;3.53;1.42;;;17.30;99.90;;;;;;5016456;28;20025;-75
2023/05/19 09:02:19;;;;;;;2.88;1.15;;;17.20;99.90;;;;;;5016112;28;20025;-75
2023/05/19 09:04:46;;;;;;;2.63;1.25;;;17.50;99.90;;;;;;5016558;28;20026;-75
2023/05/19 09:07:13;;;;;;;5.57;1.70;;;17.50;99.90;;;;;;5016078;28;20033;-75
2023/05/19 09:09:42;;;;;;;4.28;1.05;;;17.50;99.90;;;;;;5016376;28;20037;-76
2023/05/19 09:12:12;;;;;;;3.88;1.38;;;17.30;99.90;;;;;;5017103;28;20022;-76
2023/05/19 09:14:37;;;;;;;4.97;1.73;;;17.50;99.90;;;;;;5016210;28;20022;-76
2023/05/19 09:17:03;;;;;;;5.38;1.40;;;17.50;99.90;;;;;;5017294;28;20041;-75
2023/05/19 09:19:29;;;;;;;6.88;1.58;;;17.40;99.90;;;;;;5016625;28;20022;-76
2023/05/19 09:21:59;;;;;;;11.25;1.77;;;17.60;99.90;;;;;;5017219;28;20026;-76
2023/05/19 09:24:25;;;;;;;2.53;1.03;;;17.80;99.90;;;;;;5016821;28;20030;-76
2023/05/19 09:26:55;;;;;;;3.72;1.48;;;17.70;99.90;;;;;;5016943;28;20269;-76
2023/05/19 09:29:21;;;;;;;3.35;1.58;;;17.90;99.90;;;;;;5019118;28;20022;-76
2023/05/19 09:31:49;;;;;;;5.78;1.45;;;18.20;99.90;;;;;;5019574;28;20109;-76
2023/05/19 09:34:15;;;;;;;7.07;1.65;;;18.40;99.90;;;;;;5019732;28;20089;-75
2023/05/19 09:36:41;;;;;;;4.95;1.20;;;18.00;99.90;;;;;;5020532;28;20022;-76
2023/05/19 09:39:17;;;;;;;3.20;1.35;;;18.00;99.90;;;;;;5019579;28;20025;-76
2023/05/19 09:41:43;;;;;;;5.55;1.50;;;18.30;99.90;;;;;;5019946;28;20057;-76
2023/05/19 09:44:22;;;;;;;3.95;1.30;;;18.60;99.90;;;;;;5019673;28;20113;-76
2023/05/19 09:46:49;;;;;;;4.03;1.50;;;18.60;99.90;;;;;;5019430;28;20022;-76
2023/05/19 09:49:19;;;;;;;2.53;1.17;;;18.40;99.90;;;;;;5019356;28;20048;-76
2023/05/19 09:51:45;;;;;;;3.13;1.20;;;18.60;99.90;;;;;;5019640;28;20053;-76
2023/05/19 09:54:15;;;;;;;4.45;1.45;;;18.80;99.90;;;;;;5019770;28;20026;-76
2023/05/19 09:56:41;;;;;;;8.02;1.45;;;18.90;99.90;;;;;;5019897;28;20026;-76
2023/05/19 09:59:06;;;;;;;11.98;1.70;;;18.60;99.90;;;;;;5020210;28;20018;-76
2023/05/19 10:01:32;;;;;;;5.10;1.17;;;18.80;99.90;;;;;;5019605;28;20028;-76
2023/05/19 10:03:59;;;;;;;4.00;1.35;;;18.60;99.90;;;;;;5020086;28;20022;-75
2023/05/19 10:06:25;;;;;;;4.55;1.30;;;18.90;99.90;;;;;;5019052;28;20026;-76
2023/05/19 10:08:51;;;;;;;4.68;1.30;;;19.00;99.90;;;;;;5019839;28;20117;-76
2023/05/19 10:11:17;;;;;;;3.42;1.33;;;19.00;99.90;;;;;;5019039;28;20033;-75
2023/05/19 10:13:45;;;;;;;1.90;1.27;;;19.10;99.90;;;;;;5019479;28;20096;-76
2023/05/19 10:16:12;;;;;;;3.65;1.30;;;19.20;99.90;;;;;;5019902;28;20032;-75
2023/05/19 10:18:38;;;;;;;3.28;1.15;;;19.40;99.70;;;;;;5018889;28;20121;-76
2023/05/19 10:21:06;;;;;;;3.97;1.38;;;19.70;99.90;;;;;;5018971;28;20121;-76
2023/05/19 10:23:31;;;;;;;2.70;1.50;;;19.90;99.90;;;;;;5018893;28;20021;-76
2023/05/19 10:26:00;;;;;;;4.38;1.40;;;20.10;99.90;;;;;;5018529;28;20052;-76
2023/05/19 10:28:34;;;;;;;4.03;1.50;;;19.90;99.90;;;;;;5019959;28;20021;-76
2023/05/19 10:31:01;;;;;;;5.20;1.35;;;20.10;99.90;;;;;;5018715;28;20120;-76
2023/05/19 10:33:59;;;;;;;3.97;1.30;;;20.30;95.90;;;;;;5018833;28;20029;-76
2023/05/19 10:36:37;;;;;;;4.15;1.30;;;20.40;97.00;;;;;;5019636;28;20022;-76
2023/05/19 10:39:15;;;;;;;10.23;2.10;;;20.60;99.90;;;;;;5018515;28;20022;-76
2023/05/19 10:41:46;;;;;;;3.63;1.70;;;20.70;98.80;;;;;;5018613;28;20052;-76
2023/05/19 10:44:21;;;;;;;6.95;1.70;;;21.00;97.50;;;;;;5019437;28;20026;-76
2023/05/19 10:46:47;;;;;;;7.30;1.45;;;21.10;97.80;;;;;;5018432;28;20033;-76
2023/05/19 10:49:22;;;;;;;5.20;1.30;;;21.30;93.30;;;;;;5018472;28;20051;-76
2023/05/19 10:51:48;;;;;;;8.07;1.02;;;20.90;93.10;;;;;;5018548;28;20172;-76
2023/05/19 10:54:15;;;;;;;6.68;1.90;;;21.10;95.10;;;;;;5018914;28;20049;-76
2023/05/19 10:56:46;;;;;;;7.60;1.40;;;21.40;94.30;;;;;;5018790;28;20018;-76
2023/05/19 10:59:31;;;;;;;4.30;1.50;;;21.60;94.40;;;;;;5017997;28;20021;-76
2023/05/19 11:02:01;;;;;;;3.75;1.40;;;22.10;95.70;;;;;;5017911;28;20018;-76
2023/05/19 11:04:46;;;;;;;5.28;1.73;;;22.10;93.00;;;;;;5017927;28;20116;-72
2023/05/19 11:07:19;;;;;;;4.85;1.80;;;22.00;92.10;;;;;;5018365;28;20022;-72
2023/05/19 11:09:51;;;;;;;4.10;1.38;;;21.90;92.10;;;;;;5018634;28;20022;-72
2023/05/19 11:12:21;;;;;;;4.28;1.33;;;22.00;91.80;;;;;;5018323;28;20052;-72
2023/05/19 11:14:47;;;;;;;2.33;1.27;;;22.10;91.00;;;;;;5017951;28;20030;-72
2023/05/19 11:17:14;;;;;;;4.20;1.30;;;22.70;91.60;;;;;;5017439;28;20044;-72
2023/05/19 11:19:54;;;;;;;4.43;1.40;;;22.60;91.20;;;;;;5017923;28;20022;-72
2023/05/19 11:22:24;;;;;;;4.07;1.40;;;22.50;90.00;;;;;;5018369;28;20026;-72
2023/05/19 11:24:53;;;;;;;9.60;1.20;;;22.50;88.60;;;;;;5018422;28;20022;-72
2023/05/19 11:27:32;;;;;;;3.40;1.50;;;22.70;91.00;;;;;;5017373;28;20030;-72
2023/05/19 11:30:13;;;;;;;5.40;1.25;;;22.70;90.40;;;;;;5018407;28;20045;-72
2023/05/19 11:32:41;;;;;;;2.42;1.10;;;22.40;89.10;;;;;;5018620;28;20028;-72
2023/05/19 11:35:08;;;;;;;5.15;1.20;;;22.40;88.50;;;;;;5017435;28;20037;-72
2023/05/19 11:37:35;;;;;;;5.70;1.95;;;22.60;87.10;;;;;;5017357;28;20109;-72
2023/05/19 11:40:08;;;;;;;5.22;1.65;;;22.90;90.50;;;;;;5018551;28;20076;-72
2023/05/19 11:42:35;;;;;;;4.00;1.20;;;22.80;86.60;;;;;;5017205;28;20026;-72
2023/05/19 11:45:02;;;;;;;3.78;1.50;;;22.80;86.90;;;;;;5017511;28;20033;-72
2023/05/19 11:47:29;;;;;;;2.97;1.60;;;22.70;87.70;;;;;;5017392;28;20026;-72
2023/05/19 11:49:58;;;;;;;3.20;1.35;;;22.80;86.60;;;;;;5017056;28;20026;-72
2023/05/19 11:52:24;;;;;;;4.45;1.42;;;23.40;84.90;;;;;;5016658;28;20037;-72
2023/05/19 11:54:50;;;;;;;3.30;1.38;;;23.80;84.30;;;;;;5016857;28;20026;-72
2023/05/19 11:57:16;;;;;;;11.88;1.90;;;24.00;82.00;;;;;;5018242;28;20137;-72
2023/05/19 11:59:46;;;;;;;5.53;1.83;;;23.80;84.30;;;;;;5017430;28;20025;-72
2023/05/19 12:02:16;;;;;;;3.83;1.60;;;23.40;83.50;;;;;;5018240;28;20025;-72
2023/05/19 12:04:41;;;;;;;4.07;1.20;;;23.90;88.00;;;;;;5017694;28;20033;-72
2023/05/19 12:07:07;;;;;;;6.00;1.63;;;23.70;84.40;;;;;;5016977;28;20026;-72
2023/05/19 12:09:33;;;;;;;5.03;1.55;;;23.40;84.30;;;;;;5016825;28;20028;-72
2023/05/19 12:11:59;;;;;;;2.55;1.48;;;23.00;83.60;;;;;;5016813;28;20030;-72
2023/05/19 12:14:26;;;;;;;4.75;1.27;;;23.20;83.30;;;;;;5017116;28;20022;-72
2023/05/19 12:19:17;;;;;;;4.30;1.45;;;23.40;84.10;;;;;;5019329;22;20125;-72
2023/05/19 12:21:42;;;;;;;5.90;1.42;;;24.40;87.20;;;;;;4996899;28;20081;-72
2023/05/19 12:24:08;;;;;;;2.53;1.45;;;24.60;78.80;;;;;;4997986;28;20022;-72
2023/05/19 12:26:35;;;;;;;3.97;1.77;;;24.40;78.20;;;;;;4997100;28;20030;-72
2023/05/19 12:29:04;;;;;;;5.50;1.45;;;24.10;82.60;;;;;;4998106;28;20088;-72
2023/05/19 12:31:29;;;;;;;2.10;1.40;;;24.20;85.90;;;;;;4997027;28;20030;-72
2023/05/19 12:33:55;;;;;;;4.00;1.58;;;24.40;79.70;;;;;;4997093;28;20026;-72
2023/05/19 12:36:23;;;;;;;3.42;1.30;;;24.30;81.30;;;;;;4997291;28;20100;-72
2023/05/19 12:38:55;;;;;;;5.18;1.63;;;24.50;79.80;;;;;;4997690;28;20053;-72
2023/05/19 12:41:23;;;;;;;6.32;1.40;;;24.30;80.40;;;;;;4997816;28;20058;-72
2023/05/19 12:43:49;;;;;;;3.42;1.48;;;23.80;81.20;;;;;;4997626;28;20046;-72
2023/05/19 12:46:17;;;;;;;4.32;1.77;;;23.60;80.20;;;;;;4997992;28;20026;-72
2023/05/19 12:48:43;;;;;;;2.55;1.40;;;23.40;78.70;;;;;;4996565;28;20033;-72
2023/05/19 12:51:09;;;;;;;2.72;1.35;;;23.00;80.10;;;;;;4996771;28;20034;-72